createdAt,value
2018-09-03T00:02:10.068Z,101583.84
2018-09-03T00:04:38.968Z,101589.87
2018-09-03T00:07:08.071Z,101587.28
2018-09-03T00:09:40.617Z,101577.45
2018-09-03T00:12:10.099Z,101571.27
2018-09-03T00:14:39.451Z,101574.73
2018-09-03T00:17:08.942Z,101578.52
2018-09-03T00:19:38.085Z,101572.58
2018-09-03T00:22:07.171Z,101575.53
2018-09-03T00:24:36.235Z,101569.18
2018-09-03T00:27:05.102Z,101579.67
2018-09-03T00:29:34.175Z,101569.34
2018-09-03T00:32:08.231Z,101570.56
2018-09-03T00:34:42.426Z,101562.46
2018-09-03T00:39:20.712Z,101563.41
2018-09-03T00:41:54.767Z,101560.41
2018-09-03T00:44:29.191Z,101563.19
2018-09-03T00:47:02.552Z,101559.75
2018-09-03T00:49:32.101Z,101558.81
2018-09-03T00:52:01.460Z,101559.92
2018-09-03T00:54:30.401Z,101551.97
2018-09-03T00:56:59.611Z,101558.60
2018-09-03T00:59:28.488Z,101561.81
2018-09-03T01:01:57.615Z,101561.55
2018-09-03T01:04:33.522Z,101557.83
2018-09-03T01:07:02.537Z,101561.02
2018-09-03T01:09:31.346Z,101558.19
2018-09-03T01:12:00.314Z,101560.98
2018-09-03T01:14:29.214Z,101563.85
2018-09-03T01:16:58.044Z,101569.67
2018-09-03T01:19:26.983Z,101569.17
2018-09-03T01:21:55.885Z,101569.83
2018-09-03T01:24:24.824Z,101577.12
2018-09-03T01:26:53.630Z,101576.88
2018-09-03T01:29:22.546Z,101575.89
2018-09-03T01:31:55.340Z,101577.04
2018-09-03T01:34:25.477Z,101576.15
2018-09-03T01:36:54.748Z,101582.12
2018-09-03T01:39:23.644Z,101573.56
2018-09-03T01:41:52.532Z,101581.46
2018-09-03T01:44:21.309Z,101579.74
2018-09-03T01:46:50.055Z,101582.28
2018-09-03T01:49:18.972Z,101581.83
2018-09-03T01:51:47.820Z,101574.25
2018-09-03T01:54:16.700Z,101577.16
2018-09-03T01:56:45.668Z,101569.62
2018-09-03T01:59:14.430Z,101576.14
2018-09-03T02:01:43.875Z,101575.76
2018-09-03T02:04:12.761Z,101575.19
2018-09-03T02:06:42.239Z,101570.39
2018-09-03T02:09:12.580Z,101571.45
2018-09-03T02:11:42.264Z,101570.33
2018-09-03T02:14:11.166Z,101566.30
2018-09-03T02:16:40.316Z,101565.40
2018-09-03T02:19:09.507Z,101572.42
2018-09-03T02:21:38.455Z,101571.55
2018-09-03T02:24:07.675Z,101572.36
2018-09-03T02:26:36.454Z,101583.03
2018-09-03T02:29:05.286Z,101580.00
2018-09-03T02:31:34.520Z,101577.41
2018-09-03T02:34:03.539Z,101576.58
2018-09-03T02:36:32.628Z,101576.91
2018-09-03T02:39:01.755Z,101577.48
2018-09-03T02:41:30.816Z,101569.70
2018-09-03T02:43:59.644Z,101571.59
2018-09-03T02:46:28.576Z,101563.81
2018-09-03T02:48:57.407Z,101563.48
2018-09-03T02:51:26.114Z,101562.17
2018-09-03T02:53:54.977Z,101558.17
2018-09-03T02:56:23.684Z,101555.84
2018-09-03T02:58:52.779Z,101552.81
2018-09-03T03:01:22.585Z,101531.19
2018-09-03T03:03:51.480Z,101544.19
2018-09-03T03:06:20.702Z,101537.98
2018-09-03T03:08:49.567Z,101535.02
2018-09-03T03:11:18.524Z,101539.42
2018-09-03T03:13:47.831Z,101535.34
2018-09-03T03:16:16.729Z,101529.55
2018-09-03T03:18:45.670Z,101527.26
2018-09-03T03:21:14.721Z,101531.17
2018-09-03T03:23:44.019Z,101531.90
2018-09-03T03:26:13.403Z,101527.48
2018-09-03T03:28:42.408Z,101523.39
2018-09-03T03:31:11.500Z,101515.53
2018-09-03T03:33:47.134Z,101522.91
2018-09-03T03:36:16.073Z,101521.20
2018-09-03T03:38:44.941Z,101527.34
2018-09-03T03:41:14.027Z,101532.66
2018-09-03T03:43:42.836Z,101521.06
2018-09-03T03:46:12.230Z,101522.63
2018-09-03T03:48:41.338Z,101523.27
2018-09-03T03:51:10.193Z,101517.53
2018-09-03T03:53:39.300Z,101513.61
2018-09-03T03:56:08.510Z,101511.07
2018-09-03T03:58:37.284Z,101513.11
2018-09-03T04:04:01.907Z,101502.52
2018-09-03T04:06:30.776Z,101494.83
2018-09-03T04:09:00.134Z,101501.63
2018-09-03T04:11:28.991Z,101501.70
2018-09-03T04:13:58.289Z,101500.10
2018-09-03T04:16:27.030Z,101503.09
2018-09-03T04:18:56.063Z,101497.15
2018-09-03T04:21:24.954Z,101492.91
2018-09-03T04:23:54.248Z,101493.41
2018-09-03T04:26:23.560Z,101496.58
2018-09-03T04:28:52.730Z,101498.53
2018-09-03T04:31:21.443Z,101499.11
2018-09-03T04:33:50.226Z,101498.71
2018-09-03T04:36:19.371Z,101495.58
2018-09-03T04:38:48.202Z,101495.36
2018-09-03T04:41:17.304Z,101505.48
2018-09-03T04:43:46.240Z,101501.42
2018-09-03T04:46:14.972Z,101502.77
2018-09-03T04:48:43.684Z,101510.12
2018-09-03T04:51:12.721Z,101515.69
2018-09-03T04:53:41.735Z,101502.45
2018-09-03T04:56:10.839Z,101518.40
2018-09-03T04:58:39.943Z,101518.25
2018-09-03T05:01:09.057Z,101520.89
2018-09-03T05:03:37.888Z,101518.00
2018-09-03T05:06:07.288Z,101514.90
2018-09-03T05:08:36.039Z,101510.16
2018-09-03T05:11:05.026Z,101506.02
2018-09-03T05:13:33.929Z,101508.63
2018-09-03T05:16:02.796Z,101518.36
2018-09-03T05:18:31.688Z,101520.64
2018-09-03T05:21:00.589Z,101520.89
2018-09-03T05:23:29.853Z,101520.98
2018-09-03T05:25:59.395Z,101520.31
2018-09-03T05:28:28.489Z,101524.48
2018-09-03T05:30:57.457Z,101518.45
2018-09-03T05:33:26.464Z,101516.81
2018-09-03T05:35:56.060Z,101527.48
2018-09-03T05:38:25.246Z,101536.42
2018-09-03T05:40:54.170Z,101534.57
2018-09-03T05:43:23.498Z,101522.03
2018-09-03T05:45:52.156Z,101529.70
2018-09-03T05:48:21.143Z,101527.02
2018-09-03T05:50:50.142Z,101528.27
2018-09-03T05:53:19.042Z,101534.07
2018-09-03T05:55:48.097Z,101529.33
2018-09-03T05:58:17.222Z,101530.72
2018-09-03T06:00:46.321Z,101532.83
2018-09-03T06:03:15.100Z,101533.90
2018-09-03T06:05:44.021Z,101541.92
2018-09-03T06:08:12.957Z,101542.63
2018-09-03T06:10:42.178Z,101541.86
2018-09-03T06:13:10.968Z,101537.61
2018-09-03T06:15:40.118Z,101532.05
2018-09-03T06:18:09.309Z,101538.11
2018-09-03T06:20:38.255Z,101532.88
2018-09-03T06:23:07.316Z,101532.80
2018-09-03T06:25:36.455Z,101540.39
2018-09-03T06:28:05.550Z,101533.77
2018-09-03T06:30:34.508Z,101540.35
2018-09-03T06:33:03.708Z,101539.27
2018-09-03T06:35:32.733Z,101540.66
2018-09-03T06:38:01.600Z,101538.27
2018-09-03T06:40:30.712Z,101534.16
2018-09-03T06:42:59.721Z,101537.00
2018-09-03T06:45:29.114Z,101535.92
2018-09-03T06:47:58.179Z,101540.91
2018-09-03T06:50:27.491Z,101541.95
2018-09-03T06:52:56.596Z,101540.28
2018-09-03T06:55:25.806Z,101540.34
2018-09-03T06:57:55.390Z,101548.91
2018-09-03T07:00:24.292Z,101540.36
2018-09-03T07:02:53.187Z,101543.64
2018-09-03T07:05:22.154Z,101534.77
2018-09-03T07:07:51.116Z,101530.86
2018-09-03T07:10:20.125Z,101525.70
2018-09-03T07:12:49.369Z,101525.51
2018-09-03T07:15:18.467Z,101525.88
2018-09-03T07:17:47.402Z,101521.98
2018-09-03T07:20:16.318Z,101522.28
2018-09-03T07:22:45.404Z,101522.34
2018-09-03T07:25:14.193Z,101526.30
2018-09-03T07:27:43.527Z,101526.92
2018-09-03T07:30:12.578Z,101518.20
2018-09-03T07:32:41.500Z,101520.29
2018-09-03T07:35:10.580Z,101518.89
2018-09-03T07:37:39.651Z,101522.79
2018-09-03T07:40:09.209Z,101521.39
2018-09-03T07:42:38.697Z,101524.95
2018-09-03T07:45:07.588Z,101525.44
2018-09-03T07:47:36.459Z,101519.47
2018-09-03T07:50:06.610Z,101517.73
2018-09-03T07:52:35.396Z,101515.26
2018-09-03T07:55:04.817Z,101518.80
2018-09-03T07:57:33.897Z,101518.58
2018-09-03T08:00:02.798Z,101517.93
2018-09-03T08:02:31.748Z,101510.67
2018-09-03T08:05:01.805Z,101512.79
2018-09-03T08:07:30.849Z,101510.95
2018-09-03T08:09:59.794Z,101515.13
2018-09-03T08:12:28.883Z,101509.20
2018-09-03T08:14:57.985Z,101497.92
2018-09-03T08:17:27.489Z,101493.38
2018-09-03T08:19:56.614Z,101486.34
2018-09-03T08:22:25.521Z,101486.08
2018-09-03T08:24:55.185Z,101496.40
2018-09-03T08:27:24.280Z,101486.05
2018-09-03T08:29:53.131Z,101486.20
2018-09-03T08:32:22.476Z,101487.25
2018-09-03T08:34:51.567Z,101487.47
2018-09-03T08:37:20.449Z,101489.62
2018-09-03T08:39:49.249Z,101486.67
2018-09-03T08:42:18.055Z,101486.02
2018-09-03T08:44:47.018Z,101482.36
2018-09-03T08:47:15.937Z,101488.70
2018-09-03T08:49:44.917Z,101474.77
2018-09-03T08:52:13.801Z,101476.57
2018-09-03T08:54:42.686Z,101474.74
2018-09-03T08:57:11.964Z,101468.08
2018-09-03T08:59:40.828Z,101468.47
2018-09-03T09:02:10.184Z,101462.22
2018-09-03T09:04:39.278Z,101469.41
2018-09-03T09:07:08.364Z,101468.69
2018-09-03T09:09:37.552Z,101468.05
2018-09-03T09:12:06.543Z,101472.84
2018-09-03T09:14:35.426Z,101466.45
2018-09-03T09:17:04.913Z,101463.75
2018-09-03T09:19:34.203Z,101468.34
2018-09-03T09:22:03.120Z,101465.14
2018-09-03T09:24:32.070Z,101466.48
2018-09-03T09:27:01.169Z,101458.14
2018-09-03T09:29:30.177Z,101455.26
2018-09-03T09:31:59.125Z,101452.56
2018-09-03T09:34:27.893Z,101454.48
2018-09-03T09:36:56.860Z,101438.02
2018-09-03T09:39:25.989Z,101438.38
2018-09-03T09:41:55.094Z,101432.77
2018-09-03T09:44:23.905Z,101436.88
2018-09-03T09:46:52.932Z,101430.73
2018-09-03T09:49:22.095Z,101428.55
2018-09-03T09:51:51.276Z,101426.95
2018-09-03T09:54:20.088Z,101421.66
2018-09-03T09:56:49.467Z,101417.08
2018-09-03T09:59:18.558Z,101420.96
2018-09-03T10:01:47.440Z,101416.37
2018-09-03T10:04:17.185Z,101420.92
2018-09-03T10:06:45.978Z,101422.33
2018-09-03T10:09:14.915Z,101406.61
2018-09-03T10:11:44.024Z,101404.52
2018-09-03T10:14:12.924Z,101401.53
2018-09-03T10:16:42.209Z,101401.34
2018-09-03T10:19:14.188Z,101393.95
2018-09-03T10:21:43.073Z,101392.03
2018-09-03T10:24:19.163Z,101394.41
2018-09-03T10:26:48.225Z,101399.73
2018-09-03T10:29:17.532Z,101396.64
2018-09-03T10:31:46.672Z,101386.77
2018-09-03T10:34:15.519Z,101388.64
2018-09-03T10:36:44.413Z,101382.66
2018-09-03T10:39:13.505Z,101381.94
2018-09-03T10:41:42.247Z,101383.12
2018-09-03T10:44:11.076Z,101378.18
2018-09-03T10:46:40.216Z,101376.47
2018-09-03T10:49:09.350Z,101367.98
2018-09-03T10:51:38.778Z,101366.49
2018-09-03T10:54:13.738Z,101374.66
2018-09-03T10:56:42.602Z,101378.77
2018-09-03T10:59:11.427Z,101374.17
2018-09-03T11:01:40.410Z,101365.66
2018-09-03T11:04:09.462Z,101371.38
2018-09-03T11:06:38.556Z,101360.88
2018-09-03T11:09:09.732Z,101364.30
2018-09-03T11:11:38.597Z,101355.23
2018-09-03T11:14:08.152Z,101360.17
2018-09-03T11:16:37.401Z,101356.77
2018-09-03T11:19:06.713Z,101349.30
2018-09-03T11:21:35.996Z,101346.19
2018-09-03T11:24:04.705Z,101348.49
2018-09-03T11:26:33.793Z,101354.05
2018-09-03T11:29:02.893Z,101348.72
2018-09-03T11:31:32.177Z,101348.72
2018-09-03T11:34:00.984Z,101350.00
2018-09-03T11:36:29.871Z,101339.59
2018-09-03T11:38:58.731Z,101346.97
2018-09-03T11:41:27.839Z,101341.87
2018-09-03T11:43:56.747Z,101339.50
2018-09-03T11:46:25.620Z,101340.75
2018-09-03T11:48:54.544Z,101329.47
2018-09-03T11:51:23.826Z,101331.66
2018-09-03T11:53:52.716Z,101332.95
2018-09-03T11:56:22.020Z,101316.14
2018-09-03T11:58:50.903Z,101316.72
2018-09-03T12:01:19.800Z,101316.29
2018-09-03T12:03:48.872Z,101317.02
2018-09-03T12:06:17.986Z,101310.00
2018-09-03T12:08:46.875Z,101307.75
2018-09-03T12:11:17.070Z,101308.89
2018-09-03T12:13:45.896Z,101302.91
2018-09-03T12:16:17.006Z,101302.59
2018-09-03T12:18:46.129Z,101308.80
2018-09-03T12:21:15.652Z,101291.84
2018-09-03T12:23:45.031Z,101294.25
2018-09-03T12:26:13.926Z,101301.58
2018-09-03T12:28:43.025Z,101284.57
2018-09-03T12:31:12.392Z,101279.61
2018-09-03T12:33:41.213Z,101279.83
2018-09-03T12:36:10.420Z,101280.23
2018-09-03T12:38:39.289Z,101272.47
2018-09-03T12:41:08.612Z,101271.09
2018-09-03T12:43:37.999Z,101275.77
2018-09-03T12:46:08.336Z,101273.13
2018-09-03T12:48:37.640Z,101276.43
2018-09-03T12:51:07.363Z,101280.95
2018-09-03T12:53:36.121Z,101279.56
2018-09-03T12:56:05.478Z,101275.73
2018-09-03T12:58:34.653Z,101271.78
2018-09-03T13:01:03.824Z,101270.52
2018-09-03T13:03:32.892Z,101270.97
2018-09-03T13:06:01.798Z,101271.34
2018-09-03T13:08:30.696Z,101272.50
2018-09-03T13:10:59.794Z,101267.19
2018-09-03T13:13:28.683Z,101267.75
2018-09-03T13:15:57.991Z,101271.70
2018-09-03T13:18:26.876Z,101266.92
2018-09-03T13:20:55.828Z,101259.87
2018-09-03T13:23:25.341Z,101255.03
2018-09-03T13:25:54.222Z,101245.36
2018-09-03T13:28:23.157Z,101245.27
2018-09-03T13:30:52.262Z,101246.98
2018-09-03T13:33:21.145Z,101251.52
2018-09-03T13:35:50.028Z,101233.20
2018-09-03T13:38:18.919Z,101242.05
2018-09-03T13:40:48.017Z,101239.04
2018-09-03T13:43:16.999Z,101236.19
2018-09-03T13:45:46.107Z,101231.58
2018-09-03T13:48:15.050Z,101236.11
2018-09-03T13:50:43.883Z,101233.78
2018-09-03T13:53:12.983Z,101236.43
2018-09-03T13:55:41.864Z,101223.10
2018-09-03T13:58:10.958Z,101222.20
2018-09-03T14:00:40.055Z,101227.51
2018-09-03T14:03:09.358Z,101221.91
2018-09-03T14:05:39.099Z,101213.29
2018-09-03T14:08:08.546Z,101228.19
2018-09-03T14:10:37.437Z,101221.10
2018-09-03T14:13:06.355Z,101217.13
2018-09-03T14:15:35.271Z,101214.23
2018-09-03T14:18:04.632Z,101211.58
2018-09-03T14:20:34.226Z,101206.74
2018-09-03T14:23:03.356Z,101200.81
2018-09-03T14:25:32.237Z,101204.55
2018-09-03T14:28:01.528Z,101196.27
2018-09-03T14:30:30.848Z,101187.55
2018-09-03T14:33:00.154Z,101183.58
2018-09-03T14:35:30.109Z,101189.06
2018-09-03T14:37:59.161Z,101189.62
2018-09-03T14:40:28.873Z,101193.88
2018-09-03T14:42:58.227Z,101190.50
2018-09-03T14:45:27.438Z,101191.23
2018-09-03T14:47:56.973Z,101189.23
2018-09-03T14:50:26.146Z,101184.74
2018-09-03T14:52:55.315Z,101179.09
2018-09-03T14:55:24.569Z,101184.70
2018-09-03T14:57:53.660Z,101186.43
2018-09-03T15:00:22.402Z,101184.91
2018-09-03T15:02:51.652Z,101186.98
2018-09-03T15:05:20.720Z,101182.75
2018-09-03T15:07:49.630Z,101188.20
2018-09-03T15:10:18.688Z,101182.99
2018-09-03T15:12:47.829Z,101187.55
2018-09-03T15:15:17.112Z,101183.70
2018-09-03T15:17:46.016Z,101186.14
2018-09-03T15:20:15.095Z,101185.41
2018-09-03T15:22:44.767Z,101187.36
2018-09-03T15:25:14.580Z,101187.94
2018-09-03T15:27:45.249Z,101188.77
2018-09-03T15:30:14.137Z,101183.97
2018-09-03T15:32:44.953Z,101188.23
2018-09-03T15:35:14.548Z,101184.16
2018-09-03T15:37:43.485Z,101183.94
2018-09-03T15:40:12.631Z,101191.14
2018-09-03T15:42:42.279Z,101174.87
2018-09-03T15:45:14.057Z,101179.69
2018-09-03T15:47:44.569Z,101176.07
2018-09-03T15:50:14.086Z,101173.66
2018-09-03T15:52:44.002Z,101181.88
2018-09-03T15:55:13.097Z,101180.68
2018-09-03T15:57:42.193Z,101176.99
2018-09-03T16:00:11.497Z,101178.41
2018-09-03T16:02:40.321Z,101176.81
2018-09-03T16:05:09.543Z,101173.58
2018-09-03T16:07:38.556Z,101170.13
2018-09-03T16:10:07.469Z,101181.71
2018-09-03T16:12:36.945Z,101173.08
2018-09-03T16:15:06.505Z,101174.28
2018-09-03T16:17:35.561Z,101172.17
2018-09-03T16:20:04.720Z,101179.77
2018-09-03T16:22:34.158Z,101175.97
2018-09-03T16:25:03.059Z,101175.33
2018-09-03T16:27:32.734Z,101179.92
2018-09-03T16:30:01.669Z,101173.69
2018-09-03T16:32:31.141Z,101171.63
2018-09-03T16:35:00.278Z,101178.67
2018-09-03T16:37:29.754Z,101173.20
2018-09-03T16:39:59.969Z,101168.89
2018-09-03T16:42:28.974Z,101172.70
2018-09-03T16:44:57.874Z,101171.01
2018-09-03T16:47:27.259Z,101164.48
2018-09-03T16:49:56.289Z,101165.22
2018-09-03T16:52:25.326Z,101169.16
2018-09-03T16:54:57.015Z,101167.56
2018-09-03T16:57:33.796Z,101162.79
2018-09-03T17:00:03.535Z,101168.92
2018-09-03T17:02:33.015Z,101160.94
2018-09-03T17:05:02.301Z,101167.75
2018-09-03T17:07:33.111Z,101169.64
2018-09-03T17:10:02.752Z,101165.48
2018-09-03T17:12:33.077Z,101168.11
2018-09-03T17:15:02.226Z,101168.22
2018-09-03T17:17:31.241Z,101158.54
2018-09-03T17:20:00.560Z,101162.80
2018-09-03T17:22:29.784Z,101158.98
2018-09-03T17:24:58.967Z,101157.05
2018-09-03T17:27:28.334Z,101162.05
2018-09-03T17:29:57.436Z,101160.38
2018-09-03T17:32:26.252Z,101155.13
2018-09-03T17:34:55.145Z,101156.16
2018-09-03T17:37:24.080Z,101159.70
2018-09-03T17:39:53.744Z,101168.45
2018-09-03T17:42:22.633Z,101160.32
2018-09-03T17:44:54.042Z,101161.19
2018-09-03T17:47:25.334Z,101160.16
2018-09-03T17:49:55.251Z,101157.78
2018-09-03T17:52:24.248Z,101159.86
2018-09-03T17:54:53.228Z,101159.95
2018-09-03T17:57:22.325Z,101165.29
2018-09-03T17:59:52.025Z,101167.03
2018-09-03T18:02:22.341Z,101174.48
2018-09-03T18:04:52.995Z,101176.84
2018-09-03T18:07:21.980Z,101179.98
2018-09-03T18:09:51.066Z,101189.30
2018-09-03T18:12:20.072Z,101189.61
2018-09-03T18:14:49.419Z,101192.63
2018-09-03T18:17:19.199Z,101200.06
2018-09-03T18:19:48.752Z,101197.03
2018-09-03T18:22:17.787Z,101204.50
2018-09-03T18:24:49.355Z,101204.25
2018-09-03T18:27:19.121Z,101209.23
2018-09-03T18:29:49.017Z,101206.20
2018-09-03T18:32:18.156Z,101205.84
2018-09-03T18:34:47.325Z,101205.16
2018-09-03T18:37:16.559Z,101209.50
2018-09-03T18:39:45.630Z,101205.16
2018-09-03T18:42:14.742Z,101203.90
2018-09-03T18:44:44.366Z,101209.16
2018-09-03T18:47:13.555Z,101206.21
2018-09-03T18:49:43.094Z,101206.96
2018-09-03T18:52:12.807Z,101215.20
2018-09-03T18:54:42.626Z,101215.48
2018-09-03T18:57:11.948Z,101212.64
2018-09-03T18:59:41.912Z,101218.30
2018-09-03T19:02:11.221Z,101215.58
2018-09-03T19:04:40.731Z,101216.94
2018-09-03T19:07:10.413Z,101218.86
2018-09-03T19:09:39.811Z,101224.23
2018-09-03T19:12:09.396Z,101223.94
2018-09-03T19:14:39.644Z,101232.00
2018-09-03T19:17:09.269Z,101231.64
2018-09-03T19:19:39.034Z,101227.72
2018-09-03T19:22:08.511Z,101223.58
2018-09-03T19:24:38.426Z,101228.81
2018-09-03T19:27:08.535Z,101223.61
2018-09-03T19:29:37.611Z,101223.48
2018-09-03T19:32:06.990Z,101217.80
2018-09-03T19:34:36.594Z,101228.20
2018-09-03T19:37:05.985Z,101216.55
2018-09-03T19:39:35.255Z,101222.86
2018-09-03T19:42:04.686Z,101215.09
2018-09-03T19:44:33.810Z,101218.36
2018-09-03T19:47:02.892Z,101214.47
2018-09-03T19:49:32.762Z,101210.83
2018-09-03T19:52:02.846Z,101221.47
2018-09-03T19:54:34.666Z,101216.92
2018-09-03T19:57:05.089Z,101219.41
2018-09-03T19:59:34.109Z,101220.22
2018-09-03T20:02:03.895Z,101220.23
2018-09-03T20:04:33.515Z,101222.94
2018-09-03T20:07:02.805Z,101227.44
2018-09-03T20:09:32.067Z,101225.53
2018-09-03T20:12:01.094Z,101229.56
2018-09-03T20:14:31.211Z,101222.09
2018-09-03T20:17:00.982Z,101222.09
2018-09-03T20:19:31.044Z,101228.62
2018-09-03T20:22:00.725Z,101230.98
2018-09-03T20:24:30.089Z,101226.58
2018-09-03T20:26:59.184Z,101224.39
2018-09-03T20:29:28.329Z,101224.45
2018-09-03T20:31:57.565Z,101225.14
2018-09-03T20:34:26.674Z,101225.05
2018-09-03T20:36:56.181Z,101224.72
2018-09-03T20:39:25.015Z,101223.83
2018-09-03T20:41:54.147Z,101224.77
2018-09-03T20:44:24.081Z,101226.55
2018-09-03T20:46:52.971Z,101225.97
2018-09-03T20:49:22.053Z,101224.00
2018-09-03T20:51:52.053Z,101217.22
2018-09-03T20:54:21.280Z,101220.01
2018-09-03T20:56:50.416Z,101216.67
2018-09-03T20:59:20.209Z,101215.86
2018-09-03T21:01:49.068Z,101219.23
2018-09-03T21:04:18.235Z,101216.10
2018-09-03T21:06:47.602Z,101215.29
2018-09-03T21:09:16.432Z,101209.51
2018-09-03T21:11:45.255Z,101212.63
2018-09-03T21:14:14.540Z,101208.23
2018-09-03T21:16:43.858Z,101211.37
2018-09-03T21:19:13.127Z,101210.30
2018-09-03T21:21:42.242Z,101221.44
2018-09-03T21:24:11.453Z,101211.09
2018-09-03T21:26:40.922Z,101209.91
2018-09-03T21:29:09.849Z,101219.90
2018-09-03T21:31:38.726Z,101215.23
2018-09-03T21:34:07.773Z,101216.47
2018-09-03T21:36:37.037Z,101214.09
2018-09-03T21:39:06.770Z,101213.16
2018-09-03T21:41:35.729Z,101216.00
2018-09-03T21:44:05.031Z,101220.66
2018-09-03T21:46:34.307Z,101210.66
2018-09-03T21:49:03.218Z,101211.84
2018-09-03T21:51:32.323Z,101210.78
2018-09-03T21:54:01.216Z,101207.04
2018-09-03T21:56:30.730Z,101213.19
2018-09-03T21:59:00.553Z,101214.09
2018-09-03T22:01:29.522Z,101211.80
2018-09-03T22:03:58.410Z,101209.31
2018-09-03T22:06:27.620Z,101212.80
2018-09-03T22:08:56.373Z,101210.83
2018-09-03T22:11:25.553Z,101213.25
2018-09-03T22:13:54.604Z,101209.38
2018-09-03T22:16:23.938Z,101210.89
2018-09-03T22:18:52.768Z,101208.33
2018-09-03T22:21:21.677Z,101212.95
2018-09-03T22:23:50.971Z,101210.83
2018-09-03T22:26:20.316Z,101210.63
2018-09-03T22:28:49.359Z,101207.41
2018-09-03T22:31:18.456Z,101209.86
2018-09-03T22:33:47.399Z,101206.52
2018-09-03T22:36:16.349Z,101206.88
2018-09-03T22:38:45.637Z,101208.32
2018-09-03T22:41:14.733Z,101203.95
2018-09-03T22:43:43.795Z,101207.87
2018-09-03T22:46:13.100Z,101203.08
2018-09-03T22:48:41.790Z,101200.38
2018-09-03T22:51:10.713Z,101196.66
2018-09-03T22:53:39.696Z,101201.03
2018-09-03T22:56:08.663Z,101208.31
2018-09-03T22:58:37.710Z,101201.05
2018-09-03T23:01:06.415Z,101207.23
2018-09-03T23:03:35.184Z,101207.89
2018-09-03T23:06:04.163Z,101207.23
2018-09-03T23:08:32.952Z,101205.35
2018-09-03T23:11:01.737Z,101211.41
2018-09-03T23:13:31.191Z,101198.93
2018-09-03T23:16:00.490Z,101202.34
2018-09-03T23:18:29.605Z,101206.13
2018-09-03T23:20:58.730Z,101202.59
2018-09-03T23:23:27.434Z,101202.59
2018-09-03T23:25:56.515Z,101199.87
2018-09-03T23:28:26.014Z,101201.44
2018-09-03T23:30:55.724Z,101196.80
2018-09-03T23:33:25.153Z,101200.63
2018-09-03T23:35:54.065Z,101195.83
2018-09-03T23:38:23.012Z,101197.66
2018-09-03T23:40:52.107Z,101197.00
2018-09-03T23:43:21.207Z,101195.87
2018-09-03T23:45:50.298Z,101198.16
2018-09-03T23:48:19.502Z,101198.70
2018-09-03T23:50:48.377Z,101196.25
2018-09-03T23:53:17.101Z,101201.23
2018-09-03T23:55:46.569Z,101198.14
2018-09-03T23:58:15.383Z,101195.75
